AUA814 LGIR-LOWW
Flight info
| Callsign | AUA814 |
|---|---|
| Flight time | 2h 28m |
| Altitude | 36000 |
| Route | EPAL1V EPALO M749 DIRMI UL613 XANIS DIMIS GACMO OBUTI OBUT2W |
| Aircraft | A320/M-SDE3FGHIRWY/LB1 |
Departure
| Time | 2026-05-06 17:26 |
|---|---|
| Airport | Heraklion International Nikos Kazantzakis Airport (LGIR) |
Arrival
| Time | 2026-05-06 19:55 |
|---|---|
| Airport | Vienna International Airport (LOWW) |
| Time | Latitude | Longitude | Altitude | Speed | Heading |
|---|---|---|---|---|---|
| 2026-05-06 16:58 | 35.33870 | 25.17291 | 93 ft | 0 kts | 316° |
| 2026-05-06 17:21 | 35.33873 | 25.17287 | 93 ft | 3 kts | 318° |
| 2026-05-06 17:21 | 35.33921 | 25.17322 | 91 ft | 15 kts | 75° |
| 2026-05-06 17:22 | 35.33915 | 25.17469 | 91 ft | 19 kts | 96° |
| 2026-05-06 17:22 | 35.33901 | 25.17664 | 91 ft | 24 kts | 95° |
| 2026-05-06 17:22 | 35.33884 | 25.17870 | 92 ft | 24 kts | 94° |
| 2026-05-06 17:22 | 35.33873 | 25.18080 | 92 ft | 25 kts | 94° |
| 2026-05-06 17:23 | 35.33858 | 25.18289 | 92 ft | 25 kts | 95° |
| 2026-05-06 17:23 | 35.33843 | 25.18508 | 92 ft | 26 kts | 95° |
| 2026-05-06 17:23 | 35.33827 | 25.18732 | 90 ft | 27 kts | 95° |
| 2026-05-06 17:23 | 35.33819 | 25.18843 | 90 ft | 0 kts | 93° |
| 2026-05-06 17:24 | 35.33819 | 25.18844 | 90 ft | 1 kts | 93° |
| 2026-05-06 17:24 | 35.33818 | 25.18902 | 90 ft | 13 kts | 85° |
| 2026-05-06 17:24 | 35.33886 | 25.18998 | 88 ft | 17 kts | 348° |
| 2026-05-06 17:25 | 35.33912 | 25.18940 | 87 ft | 0 kts | 275° |
| 2026-05-06 17:25 | 35.33919 | 25.18837 | 89 ft | 43 kts | 275° |
| 2026-05-06 17:26 | 35.33965 | 25.18170 | 93 ft | 111 kts | 275° |
| 2026-05-06 17:26 | 35.34045 | 25.16993 | 94 ft | 164 kts | 275° |
| 2026-05-06 17:26 | 35.34162 | 25.15540 | 517 ft | 173 kts | 277° |
| 2026-05-06 17:26 | 35.34429 | 25.14115 | 1164 ft | 173 kts | 304° |
| 2026-05-06 17:27 | 35.35415 | 25.13259 | 1633 ft | 188 kts | 344° |
| 2026-05-06 17:27 | 35.36771 | 25.12870 | 1969 ft | 212 kts | 346° |
| 2026-05-06 17:27 | 35.38265 | 25.12416 | 2378 ft | 233 kts | 345° |
| 2026-05-06 17:27 | 35.39913 | 25.11892 | 2893 ft | 254 kts | 345° |
| 2026-05-06 17:28 | 35.41646 | 25.11323 | 3726 ft | 260 kts | 344° |
| 2026-05-06 17:28 | 35.43406 | 25.10734 | 4640 ft | 264 kts | 344° |
| 2026-05-06 17:28 | 35.45186 | 25.10131 | 5537 ft | 267 kts | 345° |
| 2026-05-06 17:28 | 35.46990 | 25.09517 | 6447 ft | 270 kts | 345° |
| 2026-05-06 17:29 | 35.48782 | 25.08905 | 7329 ft | 272 kts | 345° |
| 2026-05-06 17:29 | 35.50612 | 25.08273 | 8205 ft | 274 kts | 344° |
| 2026-05-06 17:29 | 35.52459 | 25.07632 | 9082 ft | 277 kts | 344° |
| 2026-05-06 17:29 | 35.54320 | 25.06986 | 9956 ft | 280 kts | 344° |
| 2026-05-06 17:30 | 35.56230 | 25.06327 | 10518 ft | 294 kts | 344° |
| 2026-05-06 17:30 | 35.58275 | 25.05621 | 10775 ft | 318 kts | 344° |
| 2026-05-06 17:30 | 35.60482 | 25.04858 | 10992 ft | 341 kts | 344° |
| 2026-05-06 17:30 | 35.62823 | 25.04051 | 11423 ft | 355 kts | 344° |
| 2026-05-06 17:31 | 35.65219 | 25.03224 | 12134 ft | 360 kts | 343° |
| 2026-05-06 17:31 | 35.67642 | 25.02386 | 12915 ft | 364 kts | 343° |
| 2026-05-06 17:31 | 35.70089 | 25.01539 | 13720 ft | 367 kts | 343° |
| 2026-05-06 17:31 | 35.72533 | 25.00580 | 14446 ft | 370 kts | 338° |
| 2026-05-06 17:32 | 35.74949 | 24.99444 | 15195 ft | 373 kts | 338° |
| 2026-05-06 17:32 | 35.77383 | 24.98296 | 15922 ft | 376 kts | 338° |
| 2026-05-06 17:32 | 35.79839 | 24.97140 | 16661 ft | 379 kts | 338° |
| 2026-05-06 17:32 | 35.82314 | 24.95973 | 17374 ft | 383 kts | 338° |
| 2026-05-06 17:33 | 35.84810 | 24.94795 | 18060 ft | 386 kts | 338° |
| 2026-05-06 17:33 | 35.87327 | 24.93608 | 18657 ft | 389 kts | 338° |
| 2026-05-06 17:33 | 35.89858 | 24.92415 | 19177 ft | 392 kts | 338° |
| 2026-05-06 17:33 | 35.92415 | 24.91210 | 19680 ft | 395 kts | 338° |
| 2026-05-06 17:34 | 35.94991 | 24.89995 | 20163 ft | 398 kts | 338° |
| 2026-05-06 17:34 | 35.97586 | 24.88770 | 20637 ft | 401 kts | 338° |
| 2026-05-06 17:34 | 36.00196 | 24.87534 | 21091 ft | 403 kts | 338° |
| 2026-05-06 17:34 | 36.02786 | 24.86308 | 21512 ft | 405 kts | 338° |
| 2026-05-06 17:35 | 36.05392 | 24.84849 | 21903 ft | 407 kts | 330° |
| 2026-05-06 17:35 | 36.07708 | 24.82910 | 22274 ft | 409 kts | 321° |
| 2026-05-06 17:35 | 36.09930 | 24.80696 | 22660 ft | 411 kts | 321° |
| 2026-05-06 17:36 | 36.14421 | 24.76243 | 23370 ft | 416 kts | 321° |
| 2026-05-06 17:36 | 36.16691 | 24.74002 | 23709 ft | 419 kts | 321° |
| 2026-05-06 17:36 | 36.18971 | 24.71746 | 23991 ft | 421 kts | 321° |
| 2026-05-06 17:36 | 36.21257 | 24.69480 | 24285 ft | 422 kts | 321° |
| 2026-05-06 17:37 | 36.23553 | 24.67200 | 24577 ft | 424 kts | 321° |
| 2026-05-06 17:37 | 36.25855 | 24.64908 | 24878 ft | 425 kts | 321° |
| 2026-05-06 17:37 | 36.28161 | 24.62609 | 25168 ft | 426 kts | 321° |
| 2026-05-06 17:37 | 36.30471 | 24.60300 | 25446 ft | 427 kts | 321° |
| 2026-05-06 17:38 | 36.32788 | 24.57980 | 25714 ft | 429 kts | 321° |
| 2026-05-06 17:38 | 36.35111 | 24.55651 | 25976 ft | 430 kts | 321° |
| 2026-05-06 17:38 | 36.37444 | 24.53317 | 26230 ft | 431 kts | 321° |
| 2026-05-06 17:38 | 36.39783 | 24.50980 | 26477 ft | 433 kts | 321° |
| 2026-05-06 17:39 | 36.42131 | 24.48632 | 26710 ft | 434 kts | 321° |
| 2026-05-06 17:39 | 36.44486 | 24.46275 | 26946 ft | 435 kts | 321° |
| 2026-05-06 17:39 | 36.46848 | 24.43910 | 27160 ft | 437 kts | 320° |
| 2026-05-06 17:39 | 36.49215 | 24.41536 | 27385 ft | 438 kts | 320° |
| 2026-05-06 17:40 | 36.51587 | 24.39154 | 27594 ft | 439 kts | 320° |
| 2026-05-06 17:40 | 36.53963 | 24.36769 | 27788 ft | 440 kts | 320° |
| 2026-05-06 17:40 | 36.56346 | 24.34376 | 28046 ft | 440 kts | 320° |
| 2026-05-06 17:40 | 36.58720 | 24.31985 | 28345 ft | 438 kts | 320° |
| 2026-05-06 17:41 | 36.61086 | 24.29598 | 28638 ft | 437 kts | 320° |
| 2026-05-06 17:41 | 36.63449 | 24.27214 | 28929 ft | 436 kts | 320° |
| 2026-05-06 17:41 | 36.65799 | 24.24842 | 29209 ft | 435 kts | 320° |
| 2026-05-06 17:41 | 36.68153 | 24.22463 | 29500 ft | 434 kts | 320° |
| 2026-05-06 17:42 | 36.70492 | 24.20099 | 29789 ft | 433 kts | 320° |
| 2026-05-06 17:42 | 36.72833 | 24.17730 | 30077 ft | 433 kts | 320° |
| 2026-05-06 17:42 | 36.75169 | 24.15368 | 30332 ft | 432 kts | 320° |
| 2026-05-06 17:42 | 36.77500 | 24.13010 | 30575 ft | 431 kts | 320° |
| 2026-05-06 17:43 | 36.79826 | 24.10656 | 30812 ft | 430 kts | 320° |
| 2026-05-06 17:43 | 36.81360 | 24.09101 | 30979 ft | 429 kts | 320° |
| 2026-05-06 17:43 | 36.83674 | 24.06750 | 31242 ft | 428 kts | 320° |
| 2026-05-06 17:43 | 36.86762 | 24.03606 | 31544 ft | 428 kts | 319° |
| 2026-05-06 17:44 | 36.88292 | 24.02049 | 31694 ft | 428 kts | 319° |
| 2026-05-06 17:44 | 36.90596 | 23.99702 | 31928 ft | 427 kts | 319° |
| 2026-05-06 17:44 | 36.92896 | 23.97359 | 32169 ft | 426 kts | 319° |
| 2026-05-06 17:44 | 36.95192 | 23.95019 | 32412 ft | 425 kts | 319° |
| 2026-05-06 17:45 | 36.97484 | 23.92686 | 32656 ft | 424 kts | 319° |
| 2026-05-06 17:45 | 36.99766 | 23.90362 | 32888 ft | 424 kts | 319° |
| 2026-05-06 17:45 | 37.02053 | 23.88030 | 33137 ft | 423 kts | 319° |
| 2026-05-06 17:45 | 37.04326 | 23.85708 | 33370 ft | 422 kts | 319° |
| 2026-05-06 17:46 | 37.06596 | 23.83385 | 33607 ft | 421 kts | 319° |
| 2026-05-06 17:46 | 37.08861 | 23.81063 | 33843 ft | 420 kts | 319° |
| 2026-05-06 17:46 | 37.11120 | 23.78744 | 34086 ft | 419 kts | 319° |
| 2026-05-06 17:46 | 37.13374 | 23.76434 | 34318 ft | 418 kts | 319° |
| 2026-05-06 17:47 | 37.15624 | 23.74128 | 34492 ft | 418 kts | 319° |
| 2026-05-06 17:47 | 37.17872 | 23.71825 | 34640 ft | 419 kts | 319° |
| 2026-05-06 17:47 | 37.20129 | 23.69511 | 34795 ft | 419 kts | 319° |
| 2026-05-06 17:47 | 37.22386 | 23.67193 | 34967 ft | 419 kts | 319° |
| 2026-05-06 17:48 | 37.24643 | 23.64871 | 35121 ft | 419 kts | 319° |
| 2026-05-06 17:48 | 37.26900 | 23.62547 | 35277 ft | 420 kts | 319° |
| 2026-05-06 17:48 | 37.29128 | 23.60255 | 35420 ft | 420 kts | 319° |
| 2026-05-06 17:48 | 37.31386 | 23.57930 | 35568 ft | 420 kts | 319° |
| 2026-05-06 17:49 | 37.33643 | 23.55602 | 35706 ft | 420 kts | 319° |
| 2026-05-06 17:49 | 37.35899 | 23.53269 | 35846 ft | 420 kts | 319° |
| 2026-05-06 17:49 | 37.38149 | 23.50939 | 36008 ft | 420 kts | 319° |
| 2026-05-06 17:49 | 37.40407 | 23.48599 | 36072 ft | 422 kts | 319° |
| 2026-05-06 17:50 | 37.44966 | 23.43864 | 36076 ft | 427 kts | 319° |
| 2026-05-06 17:50 | 37.49578 | 23.39081 | 36075 ft | 432 kts | 319° |
| 2026-05-06 17:51 | 37.54235 | 23.34254 | 36075 ft | 435 kts | 319° |
| 2026-05-06 17:51 | 37.58911 | 23.29388 | 36079 ft | 437 kts | 319° |
| 2026-05-06 17:52 | 37.63599 | 23.24490 | 36079 ft | 438 kts | 319° |
| 2026-05-06 17:52 | 37.68302 | 23.19578 | 36084 ft | 439 kts | 319° |
| 2026-05-06 17:53 | 37.73015 | 23.14661 | 36078 ft | 440 kts | 319° |
| 2026-05-06 17:53 | 37.77732 | 23.09715 | 36080 ft | 441 kts | 319° |
| 2026-05-06 17:54 | 37.82452 | 23.04747 | 36083 ft | 442 kts | 318° |
| 2026-05-06 17:54 | 37.87180 | 22.99776 | 36081 ft | 442 kts | 319° |
| 2026-05-06 17:55 | 37.91908 | 22.94802 | 36083 ft | 442 kts | 318° |
| 2026-05-06 17:55 | 37.96560 | 22.89712 | 36085 ft | 441 kts | 316° |
| 2026-05-06 17:56 | 38.01054 | 22.84413 | 36078 ft | 441 kts | 315° |
| 2026-05-06 17:56 | 38.05527 | 22.79079 | 36077 ft | 441 kts | 315° |
| 2026-05-06 17:57 | 38.10040 | 22.73791 | 36073 ft | 442 kts | 316° |
| 2026-05-06 17:57 | 38.14581 | 22.68527 | 36071 ft | 442 kts | 316° |
| 2026-05-06 17:58 | 38.19119 | 22.63263 | 36073 ft | 442 kts | 316° |
| 2026-05-06 17:58 | 38.23650 | 22.57975 | 36084 ft | 442 kts | 316° |
| 2026-05-06 17:59 | 38.28185 | 22.52694 | 36092 ft | 442 kts | 316° |
| 2026-05-06 17:59 | 38.32710 | 22.47412 | 36094 ft | 441 kts | 316° |
| 2026-05-06 18:00 | 38.37232 | 22.42125 | 36090 ft | 441 kts | 316° |
| 2026-05-06 18:00 | 38.41749 | 22.36833 | 36089 ft | 441 kts | 316° |
| 2026-05-06 18:01 | 38.46258 | 22.31525 | 36091 ft | 441 kts | 316° |
| 2026-05-06 18:01 | 38.50733 | 22.26249 | 36088 ft | 441 kts | 316° |
| 2026-05-06 18:02 | 38.55235 | 22.20934 | 36088 ft | 441 kts | 316° |
| 2026-05-06 18:02 | 38.59805 | 22.15714 | 36087 ft | 439 kts | 319° |
| 2026-05-06 18:03 | 38.64586 | 22.10829 | 36080 ft | 441 kts | 320° |
| 2026-05-06 18:03 | 38.69422 | 22.05990 | 36084 ft | 442 kts | 320° |
| 2026-05-06 18:04 | 38.74221 | 22.01061 | 36086 ft | 442 kts | 319° |
| 2026-05-06 18:04 | 38.78990 | 21.96082 | 36094 ft | 442 kts | 319° |
| 2026-05-06 18:05 | 38.83753 | 21.91103 | 36086 ft | 442 kts | 319° |
| 2026-05-06 18:05 | 38.88523 | 21.86134 | 36086 ft | 442 kts | 319° |
| 2026-05-06 18:06 | 38.93296 | 21.81160 | 36084 ft | 442 kts | 319° |
| 2026-05-06 18:06 | 38.98063 | 21.76179 | 36089 ft | 443 kts | 319° |
| 2026-05-06 18:07 | 39.02832 | 21.71171 | 36084 ft | 443 kts | 319° |
| 2026-05-06 18:07 | 39.07608 | 21.66166 | 36089 ft | 442 kts | 319° |
| 2026-05-06 18:08 | 39.12340 | 21.61198 | 36088 ft | 441 kts | 319° |
| 2026-05-06 18:08 | 39.17123 | 21.56165 | 36087 ft | 441 kts | 319° |
| 2026-05-06 18:09 | 39.21827 | 21.51189 | 36097 ft | 440 kts | 319° |
| 2026-05-06 18:09 | 39.26600 | 21.46146 | 36085 ft | 441 kts | 319° |
| 2026-05-06 18:10 | 39.31346 | 21.41126 | 36092 ft | 441 kts | 319° |
| 2026-05-06 18:10 | 39.36050 | 21.36142 | 36114 ft | 441 kts | 319° |
| 2026-05-06 18:11 | 39.40785 | 21.31114 | 36119 ft | 440 kts | 319° |
| 2026-05-06 18:11 | 39.45513 | 21.26074 | 36125 ft | 440 kts | 319° |
| 2026-05-06 18:12 | 39.50237 | 21.21030 | 36125 ft | 440 kts | 319° |
| 2026-05-06 18:12 | 39.54946 | 21.15990 | 36121 ft | 439 kts | 319° |
| 2026-05-06 18:13 | 39.59662 | 21.10950 | 36137 ft | 439 kts | 319° |
| 2026-05-06 18:13 | 39.64373 | 21.05909 | 36138 ft | 439 kts | 319° |
| 2026-05-06 18:14 | 39.69073 | 21.00858 | 36135 ft | 438 kts | 319° |
| 2026-05-06 18:14 | 39.73762 | 20.95800 | 36135 ft | 438 kts | 319° |
| 2026-05-06 18:15 | 39.78445 | 20.90739 | 36131 ft | 437 kts | 319° |
| 2026-05-06 18:15 | 39.83128 | 20.85685 | 36130 ft | 437 kts | 319° |
| 2026-05-06 18:16 | 39.87804 | 20.80633 | 36123 ft | 437 kts | 319° |
| 2026-05-06 18:16 | 39.92447 | 20.75602 | 36103 ft | 432 kts | 319° |
| 2026-05-06 18:17 | 39.97038 | 20.70621 | 36095 ft | 432 kts | 318° |
| 2026-05-06 18:17 | 40.01658 | 20.65594 | 36099 ft | 432 kts | 318° |
| 2026-05-06 18:18 | 40.06279 | 20.60577 | 36090 ft | 432 kts | 321° |
| 2026-05-06 18:18 | 40.11553 | 20.56756 | 36092 ft | 435 kts | 332° |
| 2026-05-06 18:19 | 40.17016 | 20.53324 | 36096 ft | 436 kts | 331° |
| 2026-05-06 18:19 | 40.22477 | 20.49882 | 36092 ft | 436 kts | 331° |
| 2026-05-06 18:20 | 40.27951 | 20.46417 | 36096 ft | 437 kts | 331° |
| 2026-05-06 18:20 | 40.33416 | 20.42949 | 36087 ft | 436 kts | 331° |
| 2026-05-06 18:21 | 40.38874 | 20.39475 | 36088 ft | 436 kts | 331° |
| 2026-05-06 18:21 | 40.44334 | 20.35993 | 36093 ft | 437 kts | 331° |
| 2026-05-06 18:22 | 40.49801 | 20.32515 | 36089 ft | 437 kts | 331° |
| 2026-05-06 18:22 | 40.55263 | 20.29027 | 36082 ft | 437 kts | 331° |
| 2026-05-06 18:23 | 40.60720 | 20.25534 | 36088 ft | 435 kts | 330° |
| 2026-05-06 18:23 | 40.66158 | 20.22041 | 36091 ft | 435 kts | 331° |
| 2026-05-06 18:24 | 40.71588 | 20.18558 | 36073 ft | 434 kts | 330° |
| 2026-05-06 18:24 | 40.77018 | 20.15070 | 36073 ft | 434 kts | 330° |
| 2026-05-06 18:25 | 40.82412 | 20.11592 | 36082 ft | 434 kts | 330° |
| 2026-05-06 18:25 | 40.87832 | 20.08094 | 36093 ft | 434 kts | 330° |
| 2026-05-06 18:26 | 40.93250 | 20.04590 | 36079 ft | 433 kts | 330° |
| 2026-05-06 18:26 | 40.98657 | 20.01082 | 36085 ft | 433 kts | 330° |
| 2026-05-06 18:27 | 41.04065 | 19.97579 | 36094 ft | 433 kts | 330° |
| 2026-05-06 18:27 | 41.09481 | 19.94054 | 36091 ft | 433 kts | 330° |
| 2026-05-06 18:28 | 41.14892 | 19.90525 | 36099 ft | 434 kts | 330° |
| 2026-05-06 18:28 | 41.20308 | 19.86995 | 36114 ft | 433 kts | 330° |
| 2026-05-06 18:29 | 41.25716 | 19.83463 | 36126 ft | 433 kts | 330° |
| 2026-05-06 18:29 | 41.31121 | 19.79910 | 36140 ft | 433 kts | 330° |
| 2026-05-06 18:30 | 41.36522 | 19.76357 | 36129 ft | 432 kts | 329° |
| 2026-05-06 18:30 | 41.41915 | 19.72809 | 36128 ft | 432 kts | 329° |
| 2026-05-06 18:31 | 41.47304 | 19.69262 | 36129 ft | 432 kts | 329° |
| 2026-05-06 18:31 | 41.52696 | 19.65704 | 36113 ft | 432 kts | 329° |
| 2026-05-06 18:32 | 41.57178 | 19.62742 | 36106 ft | 432 kts | 329° |
| 2026-05-06 18:32 | 41.62561 | 19.59177 | 36103 ft | 432 kts | 329° |
| 2026-05-06 18:33 | 41.67942 | 19.55604 | 36106 ft | 432 kts | 329° |
| 2026-05-06 18:33 | 41.73322 | 19.52034 | 36100 ft | 432 kts | 329° |
| 2026-05-06 18:34 | 41.78700 | 19.48451 | 36105 ft | 432 kts | 329° |
| 2026-05-06 18:34 | 41.84080 | 19.44857 | 36098 ft | 432 kts | 329° |
| 2026-05-06 18:35 | 41.89459 | 19.41250 | 36096 ft | 432 kts | 329° |
| 2026-05-06 18:35 | 41.94837 | 19.37645 | 36085 ft | 432 kts | 329° |
| 2026-05-06 18:36 | 42.00223 | 19.34036 | 36094 ft | 433 kts | 329° |
| 2026-05-06 18:36 | 42.05611 | 19.30422 | 36083 ft | 433 kts | 328° |
| 2026-05-06 18:37 | 42.10998 | 19.26791 | 36081 ft | 433 kts | 328° |
| 2026-05-06 18:37 | 42.16385 | 19.23153 | 36079 ft | 433 kts | 328° |
| 2026-05-06 18:38 | 42.21771 | 19.19513 | 36093 ft | 433 kts | 328° |
| 2026-05-06 18:38 | 42.27163 | 19.15854 | 36091 ft | 434 kts | 328° |
| 2026-05-06 18:39 | 42.32553 | 19.12193 | 36096 ft | 434 kts | 328° |
| 2026-05-06 18:40 | 42.40645 | 19.06691 | 36101 ft | 434 kts | 327° |
| 2026-05-06 18:40 | 42.46002 | 19.03027 | 36101 ft | 435 kts | 327° |
| 2026-05-06 18:41 | 42.51404 | 18.99336 | 36093 ft | 435 kts | 327° |
| 2026-05-06 18:41 | 42.56817 | 18.95633 | 36090 ft | 436 kts | 327° |
| 2026-05-06 18:42 | 42.62227 | 18.91917 | 36090 ft | 436 kts | 327° |
| 2026-05-06 18:42 | 42.67640 | 18.88194 | 36105 ft | 437 kts | 327° |
| 2026-05-06 18:43 | 42.73063 | 18.84452 | 36094 ft | 437 kts | 327° |
| 2026-05-06 18:43 | 42.78484 | 18.80704 | 36089 ft | 437 kts | 327° |
| 2026-05-06 18:44 | 42.83906 | 18.76953 | 36098 ft | 437 kts | 326° |
| 2026-05-06 18:44 | 42.89340 | 18.73194 | 36105 ft | 438 kts | 326° |
| 2026-05-06 18:45 | 42.94782 | 18.69417 | 36094 ft | 439 kts | 326° |
| 2026-05-06 18:45 | 43.00218 | 18.65640 | 36087 ft | 439 kts | 326° |
| 2026-05-06 18:46 | 43.05649 | 18.61848 | 36080 ft | 438 kts | 326° |
| 2026-05-06 18:46 | 43.11085 | 18.58045 | 36086 ft | 439 kts | 326° |
| 2026-05-06 18:47 | 43.16499 | 18.54275 | 36088 ft | 440 kts | 327° |
| 2026-05-06 18:47 | 43.22012 | 18.50599 | 36083 ft | 442 kts | 328° |
| 2026-05-06 18:48 | 43.27564 | 18.46969 | 36081 ft | 442 kts | 328° |
| 2026-05-06 18:48 | 43.33104 | 18.43310 | 36092 ft | 442 kts | 327° |
| 2026-05-06 18:49 | 43.38633 | 18.39601 | 36089 ft | 442 kts | 327° |
| 2026-05-06 18:49 | 43.44165 | 18.35883 | 36079 ft | 442 kts | 327° |
| 2026-05-06 18:50 | 43.49701 | 18.32166 | 36079 ft | 443 kts | 327° |
| 2026-05-06 18:50 | 43.55236 | 18.28444 | 36070 ft | 443 kts | 327° |
| 2026-05-06 18:51 | 43.60784 | 18.24710 | 36045 ft | 444 kts | 327° |
| 2026-05-06 18:51 | 43.66332 | 18.20966 | 36043 ft | 444 kts | 327° |
| 2026-05-06 18:52 | 43.71876 | 18.17206 | 36042 ft | 444 kts | 327° |
| 2026-05-06 18:52 | 43.77416 | 18.13440 | 36032 ft | 444 kts | 327° |
| 2026-05-06 18:53 | 43.82970 | 18.09662 | 36028 ft | 445 kts | 327° |
| 2026-05-06 18:53 | 43.88529 | 18.05879 | 36027 ft | 445 kts | 327° |
| 2026-05-06 18:54 | 43.94089 | 18.02087 | 36022 ft | 445 kts | 327° |
| 2026-05-06 18:54 | 43.99658 | 17.98287 | 36023 ft | 447 kts | 327° |
| 2026-05-06 18:55 | 44.05238 | 17.94459 | 35992 ft | 447 kts | 327° |
| 2026-05-06 18:55 | 44.10793 | 17.90640 | 35990 ft | 449 kts | 327° |
| 2026-05-06 18:56 | 44.16405 | 17.86774 | 35990 ft | 451 kts | 328° |
| 2026-05-06 18:56 | 44.22029 | 17.82901 | 35980 ft | 451 kts | 328° |
| 2026-05-06 18:57 | 44.27662 | 17.79010 | 35986 ft | 452 kts | 328° |
| 2026-05-06 18:57 | 44.33299 | 17.75102 | 35984 ft | 453 kts | 327° |
| 2026-05-06 18:58 | 44.38944 | 17.71182 | 35982 ft | 453 kts | 327° |
| 2026-05-06 18:58 | 44.44586 | 17.67262 | 35984 ft | 453 kts | 327° |
| 2026-05-06 18:59 | 44.50238 | 17.63329 | 35976 ft | 453 kts | 327° |
| 2026-05-06 18:59 | 44.55883 | 17.59394 | 35981 ft | 453 kts | 327° |
| 2026-05-06 19:00 | 44.61520 | 17.55436 | 35991 ft | 453 kts | 327° |
| 2026-05-06 19:00 | 44.67153 | 17.51474 | 35972 ft | 453 kts | 327° |
| 2026-05-06 19:01 | 44.72783 | 17.47511 | 35963 ft | 453 kts | 327° |
| 2026-05-06 19:01 | 44.78416 | 17.43539 | 35960 ft | 453 kts | 327° |
| 2026-05-06 19:02 | 44.84048 | 17.39558 | 35958 ft | 453 kts | 327° |
| 2026-05-06 19:02 | 44.89690 | 17.35569 | 35948 ft | 454 kts | 328° |
| 2026-05-06 19:03 | 44.95336 | 17.31573 | 35941 ft | 455 kts | 327° |
| 2026-05-06 19:03 | 45.00991 | 17.27556 | 35928 ft | 455 kts | 327° |
| 2026-05-06 19:04 | 45.06654 | 17.23517 | 35941 ft | 456 kts | 328° |
| 2026-05-06 19:04 | 45.12327 | 17.19456 | 35939 ft | 458 kts | 328° |
| 2026-05-06 19:05 | 45.18022 | 17.15382 | 35942 ft | 459 kts | 328° |
| 2026-05-06 19:05 | 45.23729 | 17.11301 | 35942 ft | 460 kts | 328° |
| 2026-05-06 19:06 | 45.29439 | 17.07194 | 35954 ft | 460 kts | 329° |
| 2026-05-06 19:06 | 45.35148 | 17.03072 | 35947 ft | 461 kts | 329° |
| 2026-05-06 19:07 | 45.40872 | 16.98923 | 35946 ft | 461 kts | 328° |
| 2026-05-06 19:07 | 45.46594 | 16.94781 | 35948 ft | 462 kts | 329° |
| 2026-05-06 19:08 | 45.52258 | 16.90684 | 35934 ft | 446 kts | 328° |
| 2026-05-06 19:08 | 45.57702 | 16.86737 | 35939 ft | 440 kts | 328° |
| 2026-05-06 19:09 | 45.63142 | 16.82767 | 35938 ft | 439 kts | 328° |
| 2026-05-06 19:09 | 45.68566 | 16.78794 | 35936 ft | 439 kts | 328° |
| 2026-05-06 19:10 | 45.74006 | 16.74812 | 35940 ft | 438 kts | 328° |
| 2026-05-06 19:10 | 45.76718 | 16.72823 | 35607 ft | 439 kts | 328° |
| 2026-05-06 19:10 | 45.79437 | 16.70826 | 35244 ft | 439 kts | 328° |
| 2026-05-06 19:10 | 45.82161 | 16.68825 | 34866 ft | 440 kts | 328° |
| 2026-05-06 19:11 | 45.84891 | 16.66818 | 34496 ft | 441 kts | 328° |
| 2026-05-06 19:11 | 45.87624 | 16.64806 | 34139 ft | 442 kts | 328° |
| 2026-05-06 19:11 | 45.90359 | 16.62783 | 33751 ft | 442 kts | 328° |
| 2026-05-06 19:11 | 45.93097 | 16.60755 | 33340 ft | 443 kts | 328° |
| 2026-05-06 19:12 | 45.95841 | 16.58724 | 32935 ft | 444 kts | 328° |
| 2026-05-06 19:12 | 45.98590 | 16.56691 | 32552 ft | 445 kts | 328° |
| 2026-05-06 19:12 | 46.01343 | 16.54651 | 32158 ft | 446 kts | 328° |
| 2026-05-06 19:12 | 46.04099 | 16.52605 | 31894 ft | 446 kts | 328° |
| 2026-05-06 19:13 | 46.06850 | 16.50562 | 31931 ft | 447 kts | 328° |
| 2026-05-06 19:13 | 46.12384 | 16.46445 | 31916 ft | 448 kts | 328° |
| 2026-05-06 19:14 | 46.17931 | 16.42315 | 31914 ft | 449 kts | 328° |
| 2026-05-06 19:14 | 46.23483 | 16.38162 | 31909 ft | 450 kts | 328° |
| 2026-05-06 19:15 | 46.29057 | 16.33997 | 31903 ft | 451 kts | 328° |
| 2026-05-06 19:15 | 46.34630 | 16.29823 | 31904 ft | 451 kts | 328° |
| 2026-05-06 19:16 | 46.40574 | 16.26753 | 31897 ft | 462 kts | 345° |
| 2026-05-06 19:16 | 46.43760 | 16.25986 | 31519 ft | 465 kts | 346° |
| 2026-05-06 19:16 | 46.46958 | 16.25230 | 31059 ft | 466 kts | 346° |
| 2026-05-06 19:16 | 46.50168 | 16.24477 | 30614 ft | 468 kts | 346° |
| 2026-05-06 19:17 | 46.53343 | 16.23735 | 30181 ft | 469 kts | 346° |
| 2026-05-06 19:17 | 46.56566 | 16.22977 | 29701 ft | 470 kts | 346° |
| 2026-05-06 19:17 | 46.59797 | 16.22210 | 29196 ft | 471 kts | 346° |
| 2026-05-06 19:17 | 46.63038 | 16.21437 | 28702 ft | 473 kts | 346° |
| 2026-05-06 19:18 | 46.66290 | 16.20661 | 28223 ft | 474 kts | 346° |
| 2026-05-06 19:18 | 46.69578 | 16.19880 | 27734 ft | 468 kts | 346° |
| 2026-05-06 19:18 | 46.72719 | 16.19141 | 27270 ft | 459 kts | 346° |
| 2026-05-06 19:18 | 46.75842 | 16.18405 | 26804 ft | 451 kts | 346° |
| 2026-05-06 19:19 | 46.78916 | 16.17675 | 26339 ft | 445 kts | 346° |
| 2026-05-06 19:19 | 46.81956 | 16.16943 | 25887 ft | 442 kts | 346° |
| 2026-05-06 19:19 | 46.84987 | 16.16210 | 25451 ft | 440 kts | 347° |
| 2026-05-06 19:19 | 46.88006 | 16.15481 | 25013 ft | 438 kts | 347° |
| 2026-05-06 19:20 | 46.91009 | 16.14757 | 24583 ft | 436 kts | 347° |
| 2026-05-06 19:20 | 46.93029 | 16.14270 | 24297 ft | 435 kts | 347° |
| 2026-05-06 19:20 | 46.95972 | 16.13563 | 23882 ft | 433 kts | 347° |
| 2026-05-06 19:20 | 46.98940 | 16.12849 | 23471 ft | 432 kts | 347° |
| 2026-05-06 19:21 | 47.01898 | 16.12136 | 22976 ft | 429 kts | 347° |
| 2026-05-06 19:21 | 47.04835 | 16.11425 | 22488 ft | 427 kts | 347° |
| 2026-05-06 19:21 | 47.07754 | 16.10720 | 22044 ft | 424 kts | 347° |
| 2026-05-06 19:21 | 47.10649 | 16.10018 | 21619 ft | 420 kts | 347° |
| 2026-05-06 19:22 | 47.13525 | 16.09318 | 21207 ft | 417 kts | 347° |
| 2026-05-06 19:22 | 47.16381 | 16.08621 | 20798 ft | 415 kts | 347° |
| 2026-05-06 19:22 | 47.19220 | 16.07930 | 20395 ft | 412 kts | 347° |
| 2026-05-06 19:22 | 47.22042 | 16.07245 | 19998 ft | 410 kts | 347° |
| 2026-05-06 19:23 | 47.24846 | 16.06564 | 19610 ft | 407 kts | 347° |
| 2026-05-06 19:23 | 47.27634 | 16.05886 | 19216 ft | 405 kts | 347° |
| 2026-05-06 19:23 | 47.30403 | 16.05210 | 18833 ft | 402 kts | 347° |
| 2026-05-06 19:23 | 47.33152 | 16.04566 | 18456 ft | 399 kts | 350° |
| 2026-05-06 19:24 | 47.35922 | 16.04374 | 18069 ft | 399 kts | 359° |
| 2026-05-06 19:24 | 47.38682 | 16.04795 | 17742 ft | 400 kts | 8° |
| 2026-05-06 19:24 | 47.41372 | 16.05807 | 17475 ft | 400 kts | 17° |
| 2026-05-06 19:24 | 47.44012 | 16.07120 | 17202 ft | 400 kts | 17° |
| 2026-05-06 19:25 | 47.46638 | 16.08449 | 16935 ft | 397 kts | 20° |
| 2026-05-06 19:25 | 47.49015 | 16.10424 | 16671 ft | 389 kts | 38° |
| 2026-05-06 19:25 | 47.50994 | 16.13088 | 16405 ft | 380 kts | 44° |
| 2026-05-06 19:25 | 47.52893 | 16.15761 | 16152 ft | 375 kts | 44° |
| 2026-05-06 19:26 | 47.54770 | 16.18422 | 15899 ft | 373 kts | 44° |
| 2026-05-06 19:26 | 47.56634 | 16.21077 | 15647 ft | 370 kts | 45° |
| 2026-05-06 19:26 | 47.58485 | 16.23724 | 15385 ft | 371 kts | 44° |
| 2026-05-06 19:26 | 47.60336 | 16.26371 | 15144 ft | 368 kts | 44° |
| 2026-05-06 19:27 | 47.62179 | 16.29000 | 14899 ft | 367 kts | 44° |
| 2026-05-06 19:27 | 47.64020 | 16.31625 | 14655 ft | 366 kts | 44° |
| 2026-05-06 19:27 | 47.65852 | 16.34237 | 14400 ft | 365 kts | 44° |
| 2026-05-06 19:27 | 47.67682 | 16.36848 | 14165 ft | 365 kts | 44° |
| 2026-05-06 19:28 | 47.69505 | 16.39452 | 13921 ft | 363 kts | 44° |
| 2026-05-06 19:28 | 47.71321 | 16.42051 | 13690 ft | 363 kts | 45° |
| 2026-05-06 19:28 | 47.73129 | 16.44644 | 13428 ft | 359 kts | 45° |
| 2026-05-06 19:28 | 47.74906 | 16.47200 | 13162 ft | 352 kts | 45° |
| 2026-05-06 19:29 | 47.76652 | 16.49712 | 12903 ft | 346 kts | 45° |
| 2026-05-06 19:29 | 47.78368 | 16.52173 | 12641 ft | 340 kts | 45° |
| 2026-05-06 19:29 | 47.80058 | 16.54597 | 12389 ft | 335 kts | 45° |
| 2026-05-06 19:29 | 47.81726 | 16.56999 | 12129 ft | 332 kts | 45° |
| 2026-05-06 19:30 | 47.83358 | 16.59358 | 11869 ft | 330 kts | 45° |
| 2026-05-06 19:30 | 47.85005 | 16.61740 | 11629 ft | 330 kts | 45° |
| 2026-05-06 19:30 | 47.86650 | 16.64120 | 11392 ft | 329 kts | 44° |
| 2026-05-06 19:30 | 47.88278 | 16.66474 | 11129 ft | 326 kts | 44° |
| 2026-05-06 19:31 | 47.89900 | 16.68817 | 10878 ft | 324 kts | 44° |
| 2026-05-06 19:31 | 47.91517 | 16.71156 | 10637 ft | 323 kts | 44° |
| 2026-05-06 19:31 | 47.94845 | 16.75587 | 10153 ft | 320 kts | 33° |
| 2026-05-06 19:32 | 47.96773 | 16.77218 | 10005 ft | 318 kts | 22° |
| 2026-05-06 19:32 | 47.98833 | 16.78353 | 10002 ft | 315 kts | 13° |
| 2026-05-06 19:32 | 48.00970 | 16.78988 | 10004 ft | 313 kts | 3° |
| 2026-05-06 19:32 | 48.03137 | 16.79109 | 10006 ft | 311 kts | 353° |
| 2026-05-06 19:33 | 48.05270 | 16.78713 | 10014 ft | 307 kts | 343° |
| 2026-05-06 19:33 | 48.07307 | 16.77826 | 10015 ft | 304 kts | 334° |
| 2026-05-06 19:33 | 48.09193 | 16.76521 | 10002 ft | 291 kts | 328° |
| 2026-05-06 19:33 | 48.10944 | 16.75176 | 9996 ft | 275 kts | 328° |
| 2026-05-06 19:34 | 48.12610 | 16.73902 | 9999 ft | 265 kts | 327° |
| 2026-05-06 19:34 | 48.14235 | 16.72647 | 9988 ft | 262 kts | 327° |
| 2026-05-06 19:34 | 48.15856 | 16.71390 | 9771 ft | 261 kts | 327° |
| 2026-05-06 19:34 | 48.17467 | 16.70145 | 9519 ft | 259 kts | 327° |
| 2026-05-06 19:35 | 48.19066 | 16.68911 | 9261 ft | 258 kts | 327° |
| 2026-05-06 19:35 | 48.20661 | 16.67677 | 8999 ft | 257 kts | 327° |
| 2026-05-06 19:35 | 48.22290 | 16.66545 | 8738 ft | 259 kts | 333° |
| 2026-05-06 19:35 | 48.24004 | 16.65691 | 8474 ft | 261 kts | 339° |
| 2026-05-06 19:36 | 48.25753 | 16.64963 | 8229 ft | 260 kts | 339° |
| 2026-05-06 19:36 | 48.27496 | 16.64232 | 8044 ft | 259 kts | 339° |
| 2026-05-06 19:36 | 48.29233 | 16.63500 | 7997 ft | 259 kts | 339° |
| 2026-05-06 19:36 | 48.30976 | 16.62766 | 7999 ft | 260 kts | 339° |
| 2026-05-06 19:37 | 48.32720 | 16.62029 | 7985 ft | 262 kts | 339° |
| 2026-05-06 19:37 | 48.34473 | 16.61288 | 7721 ft | 260 kts | 339° |
| 2026-05-06 19:37 | 48.36219 | 16.60552 | 7368 ft | 260 kts | 339° |
| 2026-05-06 19:37 | 48.37966 | 16.59817 | 6997 ft | 261 kts | 339° |
| 2026-05-06 19:38 | 48.39714 | 16.59082 | 6634 ft | 261 kts | 339° |
| 2026-05-06 19:38 | 48.41462 | 16.58343 | 6289 ft | 261 kts | 340° |
| 2026-05-06 19:38 | 48.43198 | 16.57612 | 6005 ft | 256 kts | 341° |
| 2026-05-06 19:38 | 48.44866 | 16.56955 | 5975 ft | 240 kts | 347° |
| 2026-05-06 19:39 | 48.46485 | 16.57190 | 5985 ft | 234 kts | 14° |
| 2026-05-06 19:39 | 48.48011 | 16.58072 | 5983 ft | 235 kts | 20° |
| 2026-05-06 19:39 | 48.49518 | 16.59056 | 5982 ft | 236 kts | 20° |
| 2026-05-06 19:39 | 48.51020 | 16.60051 | 5978 ft | 235 kts | 20° |
| 2026-05-06 19:40 | 48.52515 | 16.61042 | 5976 ft | 234 kts | 20° |
| 2026-05-06 19:40 | 48.54014 | 16.62034 | 5977 ft | 236 kts | 22° |
| 2026-05-06 19:40 | 48.55556 | 16.62997 | 5987 ft | 241 kts | 21° |
| 2026-05-06 19:40 | 48.57112 | 16.63935 | 5985 ft | 240 kts | 20° |
| 2026-05-06 19:41 | 48.58664 | 16.64868 | 5978 ft | 241 kts | 20° |
| 2026-05-06 19:41 | 48.60226 | 16.65795 | 5978 ft | 241 kts | 16° |
| 2026-05-06 19:41 | 48.61869 | 16.66026 | 5871 ft | 236 kts | 343° |
| 2026-05-06 19:41 | 48.63285 | 16.64991 | 5618 ft | 223 kts | 312° |
| 2026-05-06 19:42 | 48.64364 | 16.63331 | 5375 ft | 220 kts | 306° |
| 2026-05-06 19:42 | 48.65030 | 16.61334 | 5122 ft | 209 kts | 273° |
| 2026-05-06 19:42 | 48.64973 | 16.59180 | 4996 ft | 203 kts | 249° |
| 2026-05-06 19:42 | 48.64234 | 16.57427 | 4988 ft | 199 kts | 225° |
| 2026-05-06 19:43 | 48.63211 | 16.56013 | 4973 ft | 200 kts | 220° |
| 2026-05-06 19:43 | 48.62136 | 16.54662 | 4986 ft | 202 kts | 219° |
| 2026-05-06 19:43 | 48.61080 | 16.53350 | 4980 ft | 198 kts | 219° |
| 2026-05-06 19:43 | 48.60021 | 16.52035 | 4983 ft | 197 kts | 220° |
| 2026-05-06 19:44 | 48.58958 | 16.50717 | 4977 ft | 198 kts | 220° |
| 2026-05-06 19:44 | 48.57877 | 16.49391 | 4978 ft | 201 kts | 219° |
| 2026-05-06 19:44 | 48.56804 | 16.48069 | 4976 ft | 198 kts | 219° |
| 2026-05-06 19:44 | 48.55729 | 16.46743 | 4976 ft | 201 kts | 222° |
| 2026-05-06 19:45 | 48.54592 | 16.45513 | 4971 ft | 203 kts | 206° |
| 2026-05-06 19:45 | 48.53182 | 16.45196 | 4977 ft | 210 kts | 180° |
| 2026-05-06 19:45 | 48.51716 | 16.45439 | 4977 ft | 213 kts | 176° |
| 2026-05-06 19:45 | 48.50251 | 16.45765 | 4976 ft | 213 kts | 175° |
| 2026-05-06 19:46 | 48.48781 | 16.46099 | 4984 ft | 213 kts | 175° |
| 2026-05-06 19:46 | 48.47369 | 16.46421 | 5003 ft | 197 kts | 175° |
| 2026-05-06 19:46 | 48.46035 | 16.46731 | 4987 ft | 192 kts | 175° |
| 2026-05-06 19:46 | 48.44719 | 16.47042 | 4980 ft | 191 kts | 176° |
| 2026-05-06 19:47 | 48.43408 | 16.47365 | 4982 ft | 191 kts | 175° |
| 2026-05-06 19:47 | 48.42099 | 16.47687 | 4987 ft | 191 kts | 175° |
| 2026-05-06 19:47 | 48.40787 | 16.48007 | 4988 ft | 191 kts | 175° |
| 2026-05-06 19:47 | 48.39479 | 16.48318 | 4989 ft | 190 kts | 175° |
| 2026-05-06 19:48 | 48.38172 | 16.48632 | 4990 ft | 190 kts | 175° |
| 2026-05-06 19:48 | 48.36859 | 16.48953 | 4900 ft | 193 kts | 175° |
| 2026-05-06 19:48 | 48.35549 | 16.49277 | 4651 ft | 189 kts | 175° |
| 2026-05-06 19:48 | 48.34252 | 16.49602 | 4405 ft | 189 kts | 175° |
| 2026-05-06 19:49 | 48.32965 | 16.49918 | 4156 ft | 186 kts | 177° |
| 2026-05-06 19:49 | 48.31696 | 16.50247 | 4020 ft | 184 kts | 175° |
| 2026-05-06 19:49 | 48.30442 | 16.50586 | 3992 ft | 183 kts | 175° |
| 2026-05-06 19:49 | 48.29190 | 16.50926 | 3996 ft | 183 kts | 176° |
| 2026-05-06 19:50 | 48.27937 | 16.51206 | 3785 ft | 180 kts | 176° |
| 2026-05-06 19:50 | 48.26758 | 16.51599 | 3559 ft | 172 kts | 173° |
| 2026-05-06 19:50 | 48.25619 | 16.52047 | 3347 ft | 167 kts | 172° |
| 2026-05-06 19:50 | 48.24504 | 16.52508 | 3135 ft | 165 kts | 172° |
| 2026-05-06 19:51 | 48.23402 | 16.52972 | 2920 ft | 164 kts | 171° |
| 2026-05-06 19:51 | 48.22310 | 16.53434 | 2706 ft | 162 kts | 171° |
| 2026-05-06 19:51 | 48.21253 | 16.53885 | 2489 ft | 150 kts | 171° |
| 2026-05-06 19:51 | 48.20297 | 16.54293 | 2320 ft | 133 kts | 171° |
| 2026-05-06 19:52 | 48.19452 | 16.54654 | 2140 ft | 121 kts | 172° |
| 2026-05-06 19:52 | 48.18656 | 16.54989 | 1982 ft | 117 kts | 171° |
| 2026-05-06 19:52 | 48.17868 | 16.55321 | 1824 ft | 118 kts | 171° |
| 2026-05-06 19:52 | 48.17073 | 16.55657 | 1670 ft | 119 kts | 170° |
| 2026-05-06 19:53 | 48.16276 | 16.55994 | 1513 ft | 120 kts | 168° |
| 2026-05-06 19:53 | 48.15473 | 16.56334 | 1353 ft | 120 kts | 169° |
| 2026-05-06 19:53 | 48.14667 | 16.56676 | 1198 ft | 120 kts | 164° |
| 2026-05-06 19:53 | 48.13866 | 16.57015 | 1034 ft | 120 kts | 165° |
| 2026-05-06 19:54 | 48.13064 | 16.57355 | 874 ft | 121 kts | 162° |
| 2026-05-06 19:54 | 48.12255 | 16.57701 | 713 ft | 121 kts | 163° |
| 2026-05-06 19:54 | 48.11468 | 16.58033 | 617 ft | 108 kts | 164° |
| 2026-05-06 19:54 | 48.10863 | 16.58289 | 623 ft | 77 kts | 164° |
| 2026-05-06 19:55 | 48.10485 | 16.58443 | 616 ft | 33 kts | 165° |
| 2026-05-06 19:55 | 48.10279 | 16.58455 | 614 ft | 27 kts | 187° |
| 2026-05-06 19:55 | 48.10160 | 16.58413 | 620 ft | 9 kts | 197° |
| 2026-05-06 19:55 | 48.10107 | 16.58352 | 620 ft | 11 kts | 240° |
| 2026-05-06 19:56 | 48.10092 | 16.58242 | 609 ft | 14 kts | 278° |
| 2026-05-06 19:56 | 48.10174 | 16.58159 | 622 ft | 14 kts | 342° |
| 2026-05-06 19:56 | 48.10264 | 16.58124 | 618 ft | 13 kts | 345° |
| 2026-05-06 19:56 | 48.10302 | 16.58108 | 609 ft | 0 kts | 344° |
| 2026-05-06 20:02 | 48.10305 | 16.58107 | 609 ft | 2 kts | 344° |
| 2026-05-06 20:02 | 48.10354 | 16.58087 | 618 ft | 15 kts | 345° |
| 2026-05-06 20:03 | 48.10479 | 16.58034 | 618 ft | 18 kts | 343° |
| 2026-05-06 20:03 | 48.10588 | 16.57986 | 613 ft | 15 kts | 343° |
| 2026-05-06 20:03 | 48.10689 | 16.57945 | 617 ft | 16 kts | 345° |
| 2026-05-06 20:03 | 48.10797 | 16.57901 | 621 ft | 17 kts | 345° |
| 2026-05-06 20:04 | 48.10915 | 16.57852 | 619 ft | 19 kts | 346° |
| 2026-05-06 20:04 | 48.11042 | 16.57765 | 610 ft | 21 kts | 310° |
| 2026-05-06 20:04 | 48.11115 | 16.57565 | 610 ft | 23 kts | 296° |
| 2026-05-06 20:04 | 48.11184 | 16.57351 | 611 ft | 22 kts | 296° |
| 2026-05-06 20:05 | 48.11237 | 16.57186 | 614 ft | 16 kts | 296° |
| 2026-05-06 20:05 | 48.11290 | 16.57025 | 618 ft | 19 kts | 296° |
| 2026-05-06 20:05 | 48.11333 | 16.56894 | 620 ft | 7 kts | 296° |
| 2026-05-06 20:05 | 48.11334 | 16.56892 | 619 ft | 0 kts | 296° |
| 2026-05-06 20:06 | 48.11335 | 16.56889 | 618 ft | 2 kts | 297° |
| 2026-05-06 20:06 | 48.11361 | 16.56815 | 619 ft | 15 kts | 296° |
| 2026-05-06 20:07 | 48.11424 | 16.56616 | 613 ft | 26 kts | 295° |
| 2026-05-06 20:07 | 48.11479 | 16.56440 | 618 ft | 29 kts | 295° |
| 2026-05-06 20:07 | 48.11562 | 16.56197 | 616 ft | 18 kts | 310° |
| 2026-05-06 20:07 | 48.11663 | 16.56246 | 610 ft | 16 kts | 28° |
| 2026-05-06 20:08 | 48.11751 | 16.56334 | 613 ft | 15 kts | 68° |
| 2026-05-06 20:08 | 48.11722 | 16.56481 | 615 ft | 16 kts | 116° |
| 2026-05-06 20:08 | 48.11720 | 16.56594 | 610 ft | 10 kts | 29° |
| 2026-05-06 20:08 | 48.11753 | 16.56619 | 614 ft | 3 kts | 25° |
| 2026-05-06 20:09 | 48.11763 | 16.56626 | 614 ft | 2 kts | 26° |
| 2026-05-06 20:09 | 48.11765 | 16.56628 | 614 ft | 0 kts | 26° |